sensor_id;sensor_type;location;lat;lon;timestamp;P1;durP1;ratioP1;P2;durP2;ratioP2
23394;SDS011;11870;53.084;18.206;2022-09-21T00:00:03;5.85;;;3.10;;
23394;SDS011;11870;53.084;18.206;2022-09-21T00:02:50;4.10;;;2.67;;
23394;SDS011;11870;53.084;18.206;2022-09-21T00:05:19;6.30;;;2.90;;
23394;SDS011;11870;53.084;18.206;2022-09-21T00:07:45;4.78;;;2.97;;
23394;SDS011;11870;53.084;18.206;2022-09-21T00:10:11;5.40;;;2.67;;
23394;SDS011;11870;53.084;18.206;2022-09-21T00:12:37;4.80;;;2.80;;
23394;SDS011;11870;53.084;18.206;2022-09-21T00:15:07;7.13;;;3.33;;
23394;SDS011;11870;53.084;18.206;2022-09-21T00:17:34;5.60;;;3.08;;
23394;SDS011;11870;53.084;18.206;2022-09-21T00:20:05;6.22;;;3.45;;
23394;SDS011;11870;53.084;18.206;2022-09-21T00:22:31;5.40;;;3.13;;
23394;SDS011;11870;53.084;18.206;2022-09-21T00:24:58;5.57;;;3.08;;
23394;SDS011;11870;53.084;18.206;2022-09-21T00:27:27;6.55;;;3.33;;
23394;SDS011;11870;53.084;18.206;2022-09-21T00:29:56;6.47;;;2.88;;
23394;SDS011;11870;53.084;18.206;2022-09-21T00:32:25;5.10;;;3.33;;
23394;SDS011;11870;53.084;18.206;2022-09-21T00:34:51;7.60;;;2.60;;
23394;SDS011;11870;53.084;18.206;2022-09-21T00:37:20;4.28;;;2.40;;
23394;SDS011;11870;53.084;18.206;2022-09-21T00:39:47;3.85;;;2.83;;
23394;SDS011;11870;53.084;18.206;2022-09-21T00:42:15;4.60;;;2.70;;
23394;SDS011;11870;53.084;18.206;2022-09-21T00:44:50;3.78;;;2.35;;
23394;SDS011;11870;53.084;18.206;2022-09-21T00:47:27;3.78;;;2.40;;
23394;SDS011;11870;53.084;18.206;2022-09-21T00:50:05;4.80;;;2.67;;
23394;SDS011;11870;53.084;18.206;2022-09-21T00:52:37;6.20;;;2.50;;
23394;SDS011;11870;53.084;18.206;2022-09-21T00:55:08;3.85;;;2.30;;
23394;SDS011;11870;53.084;18.206;2022-09-21T00:57:42;3.65;;;2.20;;
23394;SDS011;11870;53.084;18.206;2022-09-21T01:00:10;4.93;;;2.40;;
23394;SDS011;11870;53.084;18.206;2022-09-21T01:02:36;3.80;;;2.20;;
23394;SDS011;11870;53.084;18.206;2022-09-21T01:05:04;3.35;;;2.20;;
23394;SDS011;11870;53.084;18.206;2022-09-21T01:07:31;4.55;;;2.65;;
23394;SDS011;11870;53.084;18.206;2022-09-21T01:10:00;3.20;;;2.20;;
23394;SDS011;11870;53.084;18.206;2022-09-21T01:15:15;3.63;;;2.13;;
23394;SDS011;11870;53.084;18.206;2022-09-21T01:17:51;3.70;;;2.28;;
23394;SDS011;11870;53.084;18.206;2022-09-21T01:23:03;3.72;;;2.13;;
23394;SDS011;11870;53.084;18.206;2022-09-21T01:30:54;4.43;;;1.98;;
23394;SDS011;11870;53.084;18.206;2022-09-21T01:33:25;3.53;;;1.98;;
23394;SDS011;11870;53.084;18.206;2022-09-21T01:35:57;4.18;;;1.95;;
23394;SDS011;11870;53.084;18.206;2022-09-21T01:38:31;4.10;;;1.70;;
23394;SDS011;11870;53.084;18.206;2022-09-21T01:41:03;4.90;;;2.20;;
23394;SDS011;11870;53.084;18.206;2022-09-21T01:43:33;4.00;;;2.03;;
23394;SDS011;11870;53.084;18.206;2022-09-21T01:46:15;3.28;;;1.80;;
23394;SDS011;11870;53.084;18.206;2022-09-21T01:48:46;3.13;;;1.80;;
23394;SDS011;11870;53.084;18.206;2022-09-21T01:51:16;3.10;;;1.77;;
23394;SDS011;11870;53.084;18.206;2022-09-21T01:53:53;2.92;;;1.77;;
23394;SDS011;11870;53.084;18.206;2022-09-21T01:56:24;3.78;;;1.70;;
23394;SDS011;11870;53.084;18.206;2022-09-21T01:59:05;3.78;;;2.03;;
23394;SDS011;11870;53.084;18.206;2022-09-21T02:01:45;2.15;;;1.67;;
23394;SDS011;11870;53.084;18.206;2022-09-21T02:04:17;3.25;;;1.92;;
23394;SDS011;11870;53.084;18.206;2022-09-21T02:06:44;3.38;;;1.90;;
23394;SDS011;11870;53.084;18.206;2022-09-21T02:09:11;3.47;;;1.70;;
23394;SDS011;11870;53.084;18.206;2022-09-21T02:11:38;2.47;;;1.88;;
23394;SDS011;11870;53.084;18.206;2022-09-21T02:14:09;5.35;;;1.77;;
23394;SDS011;11870;53.084;18.206;2022-09-21T02:16:48;2.95;;;1.60;;
23394;SDS011;11870;53.084;18.206;2022-09-21T02:19:42;2.33;;;1.50;;
23394;SDS011;11870;53.084;18.206;2022-09-21T02:25:03;2.45;;;1.67;;
23394;SDS011;11870;53.084;18.206;2022-09-21T02:30:42;3.78;;;2.10;;
23394;SDS011;11870;53.084;18.206;2022-09-21T02:33:22;4.03;;;2.20;;
23394;SDS011;11870;53.084;18.206;2022-09-21T02:36:10;2.78;;;1.75;;
23394;SDS011;11870;53.084;18.206;2022-09-21T02:38:48;3.03;;;1.90;;
23394;SDS011;11870;53.084;18.206;2022-09-21T02:41:24;3.50;;;1.77;;
23394;SDS011;11870;53.084;18.206;2022-09-21T02:44:02;4.45;;;2.05;;
23394;SDS011;11870;53.084;18.206;2022-09-21T02:46:47;5.57;;;2.35;;
23394;SDS011;11870;53.084;18.206;2022-09-21T02:49:20;3.65;;;2.10;;
23394;SDS011;11870;53.084;18.206;2022-09-21T02:51:51;5.82;;;2.20;;
23394;SDS011;11870;53.084;18.206;2022-09-21T02:54:23;3.78;;;2.10;;
23394;SDS011;11870;53.084;18.206;2022-09-21T02:56:53;5.95;;;2.63;;
23394;SDS011;11870;53.084;18.206;2022-09-21T02:59:22;3.63;;;2.20;;
23394;SDS011;11870;53.084;18.206;2022-09-21T03:01:48;5.72;;;2.53;;
23394;SDS011;11870;53.084;18.206;2022-09-21T03:04:16;4.85;;;2.30;;
23394;SDS011;11870;53.084;18.206;2022-09-21T03:06:42;4.85;;;2.38;;
23394;SDS011;11870;53.084;18.206;2022-09-21T03:09:08;4.25;;;2.20;;
23394;SDS011;11870;53.084;18.206;2022-09-21T03:11:35;4.65;;;2.55;;
23394;SDS011;11870;53.084;18.206;2022-09-21T03:14:02;4.47;;;2.50;;
23394;SDS011;11870;53.084;18.206;2022-09-21T03:16:33;3.95;;;2.15;;
23394;SDS011;11870;53.084;18.206;2022-09-21T03:19:00;4.22;;;2.40;;
23394;SDS011;11870;53.084;18.206;2022-09-21T03:21:25;6.72;;;2.33;;
23394;SDS011;11870;53.084;18.206;2022-09-21T03:23:51;3.13;;;2.28;;
23394;SDS011;11870;53.084;18.206;2022-09-21T03:26:17;3.38;;;2.20;;
23394;SDS011;11870;53.084;18.206;2022-09-21T03:28:49;4.07;;;2.33;;
23394;SDS011;11870;53.084;18.206;2022-09-21T03:31:19;3.78;;;2.30;;
23394;SDS011;11870;53.084;18.206;2022-09-21T03:33:47;3.05;;;2.20;;
23394;SDS011;11870;53.084;18.206;2022-09-21T03:36:12;5.45;;;2.33;;
23394;SDS011;11870;53.084;18.206;2022-09-21T03:38:39;4.72;;;2.33;;
23394;SDS011;11870;53.084;18.206;2022-09-21T03:41:05;4.75;;;2.28;;
23394;SDS011;11870;53.084;18.206;2022-09-21T03:43:31;5.70;;;2.70;;
23394;SDS011;11870;53.084;18.206;2022-09-21T03:45:57;3.67;;;2.30;;
23394;SDS011;11870;53.084;18.206;2022-09-21T03:48:23;4.47;;;2.63;;
23394;SDS011;11870;53.084;18.206;2022-09-21T03:50:49;3.47;;;2.17;;
23394;SDS011;11870;53.084;18.206;2022-09-21T03:53:15;6.25;;;2.67;;
23394;SDS011;11870;53.084;18.206;2022-09-21T03:55:42;3.35;;;2.10;;
23394;SDS011;11870;53.084;18.206;2022-09-21T03:58:08;6.60;;;2.50;;
23394;SDS011;11870;53.084;18.206;2022-09-21T04:00:34;3.42;;;2.30;;
23394;SDS011;11870;53.084;18.206;2022-09-21T04:03:01;6.05;;;2.13;;
23394;SDS011;11870;53.084;18.206;2022-09-21T04:05:27;4.35;;;2.33;;
23394;SDS011;11870;53.084;18.206;2022-09-21T04:07:53;4.90;;;2.53;;
23394;SDS011;11870;53.084;18.206;2022-09-21T04:10:21;4.28;;;2.20;;
23394;SDS011;11870;53.084;18.206;2022-09-21T04:12:56;5.70;;;2.38;;
23394;SDS011;11870;53.084;18.206;2022-09-21T04:15:23;4.28;;;2.33;;
23394;SDS011;11870;53.084;18.206;2022-09-21T04:17:50;4.35;;;2.20;;
23394;SDS011;11870;53.084;18.206;2022-09-21T04:20:16;3.92;;;2.40;;
23394;SDS011;11870;53.084;18.206;2022-09-21T04:22:43;4.50;;;2.20;;
23394;SDS011;11870;53.084;18.206;2022-09-21T04:25:11;6.63;;;2.30;;
23394;SDS011;11870;53.084;18.206;2022-09-21T04:27:37;3.38;;;2.05;;
23394;SDS011;11870;53.084;18.206;2022-09-21T04:30:04;4.22;;;2.35;;
23394;SDS011;11870;53.084;18.206;2022-09-21T04:32:31;4.30;;;2.28;;
23394;SDS011;11870;53.084;18.206;2022-09-21T04:34:57;5.25;;;2.47;;
23394;SDS011;11870;53.084;18.206;2022-09-21T04:37:23;6.32;;;2.28;;
23394;SDS011;11870;53.084;18.206;2022-09-21T04:39:48;5.65;;;2.53;;
23394;SDS011;11870;53.084;18.206;2022-09-21T04:42:14;4.47;;;2.75;;
23394;SDS011;11870;53.084;18.206;2022-09-21T04:44:40;4.50;;;2.42;;
23394;SDS011;11870;53.084;18.206;2022-09-21T04:47:06;4.70;;;2.55;;
23394;SDS011;11870;53.084;18.206;2022-09-21T04:49:32;4.10;;;2.38;;
23394;SDS011;11870;53.084;18.206;2022-09-21T04:51:58;5.32;;;2.33;;
23394;SDS011;11870;53.084;18.206;2022-09-21T04:54:24;3.65;;;2.17;;
23394;SDS011;11870;53.084;18.206;2022-09-21T04:56:50;6.10;;;2.40;;
23394;SDS011;11870;53.084;18.206;2022-09-21T04:59:16;4.38;;;2.28;;
23394;SDS011;11870;53.084;18.206;2022-09-21T05:01:41;3.67;;;2.30;;
23394;SDS011;11870;53.084;18.206;2022-09-21T05:04:07;4.70;;;2.40;;
23394;SDS011;11870;53.084;18.206;2022-09-21T05:06:35;2.72;;;2.28;;
23394;SDS011;11870;53.084;18.206;2022-09-21T05:09:01;4.75;;;2.50;;
23394;SDS011;11870;53.084;18.206;2022-09-21T05:11:46;3.38;;;2.13;;
23394;SDS011;11870;53.084;18.206;2022-09-21T05:14:12;5.55;;;2.20;;
23394;SDS011;11870;53.084;18.206;2022-09-21T05:16:38;3.95;;;2.50;;
23394;SDS011;11870;53.084;18.206;2022-09-21T05:19:04;5.60;;;2.40;;
23394;SDS011;11870;53.084;18.206;2022-09-21T05:21:30;3.65;;;2.17;;
23394;SDS011;11870;53.084;18.206;2022-09-21T05:23:56;5.65;;;2.20;;
23394;SDS011;11870;53.084;18.206;2022-09-21T05:26:23;3.00;;;1.83;;
23394;SDS011;11870;53.084;18.206;2022-09-21T05:28:50;5.47;;;2.15;;
23394;SDS011;11870;53.084;18.206;2022-09-21T05:33:50;4.18;;;1.90;;
23394;SDS011;11870;53.084;18.206;2022-09-21T05:39:05;4.47;;;1.92;;
23394;SDS011;11870;53.084;18.206;2022-09-21T05:41:32;3.00;;;2.00;;
23394;SDS011;11870;53.084;18.206;2022-09-21T05:43:58;3.50;;;2.17;;
23394;SDS011;11870;53.084;18.206;2022-09-21T05:52:00;6.95;;;2.42;;
23394;SDS011;11870;53.084;18.206;2022-09-21T05:57:14;5.53;;;2.22;;
23394;SDS011;11870;53.084;18.206;2022-09-21T06:00:03;4.28;;;1.83;;
23394;SDS011;11870;53.084;18.206;2022-09-21T06:05:12;3.58;;;1.75;;
23394;SDS011;11870;53.084;18.206;2022-09-21T06:07:39;3.40;;;2.35;;
23394;SDS011;11870;53.084;18.206;2022-09-21T06:10:06;6.72;;;2.38;;
23394;SDS011;11870;53.084;18.206;2022-09-21T06:12:34;5.18;;;2.60;;
23394;SDS011;11870;53.084;18.206;2022-09-21T06:15:00;4.80;;;2.00;;
23394;SDS011;11870;53.084;18.206;2022-09-21T06:17:26;4.28;;;2.13;;
23394;SDS011;11870;53.084;18.206;2022-09-21T06:19:52;6.50;;;2.20;;
23394;SDS011;11870;53.084;18.206;2022-09-21T06:22:18;4.03;;;1.85;;
23394;SDS011;11870;53.084;18.206;2022-09-21T06:24:44;4.40;;;2.05;;
23394;SDS011;11870;53.084;18.206;2022-09-21T06:27:10;3.15;;;1.77;;
23394;SDS011;11870;53.084;18.206;2022-09-21T06:29:36;2.33;;;1.60;;
23394;SDS011;11870;53.084;18.206;2022-09-21T06:32:03;2.25;;;1.52;;
23394;SDS011;11870;53.084;18.206;2022-09-21T06:34:30;2.95;;;1.50;;
23394;SDS011;11870;53.084;18.206;2022-09-21T06:36:56;2.38;;;1.60;;
23394;SDS011;11870;53.084;18.206;2022-09-21T06:39:22;2.35;;;1.65;;
23394;SDS011;11870;53.084;18.206;2022-09-21T06:41:48;2.75;;;1.38;;
23394;SDS011;11870;53.084;18.206;2022-09-21T06:44:14;4.55;;;1.48;;
23394;SDS011;11870;53.084;18.206;2022-09-21T06:46:39;3.28;;;1.50;;
23394;SDS011;11870;53.084;18.206;2022-09-21T06:49:05;1.60;;;1.10;;
23394;SDS011;11870;53.084;18.206;2022-09-21T06:51:32;1.65;;;1.25;;
23394;SDS011;11870;53.084;18.206;2022-09-21T06:53:58;4.10;;;1.30;;
23394;SDS011;11870;53.084;18.206;2022-09-21T06:56:25;2.75;;;1.40;;
23394;SDS011;11870;53.084;18.206;2022-09-21T06:58:51;2.30;;;1.42;;
23394;SDS011;11870;53.084;18.206;2022-09-21T07:01:19;1.45;;;1.30;;
23394;SDS011;11870;53.084;18.206;2022-09-21T07:03:47;2.17;;;1.40;;
23394;SDS011;11870;53.084;18.206;2022-09-21T07:06:16;2.05;;;1.20;;
23394;SDS011;11870;53.084;18.206;2022-09-21T07:08:43;1.92;;;1.30;;
23394;SDS011;11870;53.084;18.206;2022-09-21T07:11:10;3.50;;;1.30;;
23394;SDS011;11870;53.084;18.206;2022-09-21T07:13:37;1.42;;;1.00;;
23394;SDS011;11870;53.084;18.206;2022-09-21T07:16:06;1.80;;;1.00;;
23394;SDS011;11870;53.084;18.206;2022-09-21T07:18:34;4.05;;;1.00;;
23394;SDS011;11870;53.084;18.206;2022-09-21T07:21:08;1.27;;;1.05;;
23394;SDS011;11870;53.084;18.206;2022-09-21T07:23:35;1.27;;;1.17;;
23394;SDS011;11870;53.084;18.206;2022-09-21T07:26:02;1.08;;;1.00;;
23394;SDS011;11870;53.084;18.206;2022-09-21T07:28:33;1.50;;;1.05;;
23394;SDS011;11870;53.084;18.206;2022-09-21T07:31:05;1.73;;;1.13;;
23394;SDS011;11870;53.084;18.206;2022-09-21T07:33:36;2.38;;;2.00;;
23394;SDS011;11870;53.084;18.206;2022-09-21T07:36:02;1.38;;;0.95;;
23394;SDS011;11870;53.084;18.206;2022-09-21T07:38:35;2.35;;;0.93;;
23394;SDS011;11870;53.084;18.206;2022-09-21T07:41:04;0.90;;;0.88;;
23394;SDS011;11870;53.084;18.206;2022-09-21T07:43:33;1.20;;;0.90;;
23394;SDS011;11870;53.084;18.206;2022-09-21T07:45:59;0.90;;;0.90;;
23394;SDS011;11870;53.084;18.206;2022-09-21T07:48:26;0.93;;;0.80;;
23394;SDS011;11870;53.084;18.206;2022-09-21T07:50:53;0.98;;;0.80;;
23394;SDS011;11870;53.084;18.206;2022-09-21T07:53:21;1.33;;;0.90;;
23394;SDS011;11870;53.084;18.206;2022-09-21T07:55:47;1.55;;;0.75;;
23394;SDS011;11870;53.084;18.206;2022-09-21T07:58:13;0.98;;;0.70;;
23394;SDS011;11870;53.084;18.206;2022-09-21T08:00:57;3.25;;;0.70;;
23394;SDS011;11870;53.084;18.206;2022-09-21T08:03:23;0.65;;;0.65;;
23394;SDS011;11870;53.084;18.206;2022-09-21T08:05:49;0.90;;;0.70;;
23394;SDS011;11870;53.084;18.206;2022-09-21T08:08:16;0.70;;;0.70;;
23394;SDS011;11870;53.084;18.206;2022-09-21T08:10:42;0.68;;;0.68;;
23394;SDS011;11870;53.084;18.206;2022-09-21T08:13:08;0.90;;;0.80;;
23394;SDS011;11870;53.084;18.206;2022-09-21T08:15:34;1.00;;;0.70;;
23394;SDS011;11870;53.084;18.206;2022-09-21T08:18:00;1.33;;;0.70;;
23394;SDS011;11870;53.084;18.206;2022-09-21T08:20:30;0.88;;;0.73;;
23394;SDS011;11870;53.084;18.206;2022-09-21T08:22:56;0.80;;;0.70;;
23394;SDS011;11870;53.084;18.206;2022-09-21T08:25:22;0.82;;;0.70;;
23394;SDS011;11870;53.084;18.206;2022-09-21T08:27:48;0.70;;;0.70;;
23394;SDS011;11870;53.084;18.206;2022-09-21T08:30:14;0.80;;;0.70;;
23394;SDS011;11870;53.084;18.206;2022-09-21T08:32:40;0.60;;;0.60;;
23394;SDS011;11870;53.084;18.206;2022-09-21T08:35:07;1.60;;;0.90;;
23394;SDS011;11870;53.084;18.206;2022-09-21T08:37:35;3.22;;;0.70;;
23394;SDS011;11870;53.084;18.206;2022-09-21T08:40:03;0.70;;;0.60;;
23394;SDS011;11870;53.084;18.206;2022-09-21T08:42:43;0.80;;;0.80;;
23394;SDS011;11870;53.084;18.206;2022-09-21T08:45:17;1.58;;;0.90;;
23394;SDS011;11870;53.084;18.206;2022-09-21T08:47:48;3.22;;;0.80;;
23394;SDS011;11870;53.084;18.206;2022-09-21T08:52:47;0.73;;;0.73;;
23394;SDS011;11870;53.084;18.206;2022-09-21T08:55:18;2.08;;;1.38;;
23394;SDS011;11870;53.084;18.206;2022-09-21T08:57:45;0.60;;;0.50;;
23394;SDS011;11870;53.084;18.206;2022-09-21T09:00:12;1.05;;;0.60;;
23394;SDS011;11870;53.084;18.206;2022-09-21T09:08:26;1.30;;;0.65;;
23394;SDS011;11870;53.084;18.206;2022-09-21T09:13:45;1.02;;;0.50;;
23394;SDS011;11870;53.084;18.206;2022-09-21T09:19:16;0.60;;;0.60;;
23394;SDS011;11870;53.084;18.206;2022-09-21T09:21:57;1.10;;;0.77;;
23394;SDS011;11870;53.084;18.206;2022-09-21T09:24:48;1.20;;;0.60;;
23394;SDS011;11870;53.084;18.206;2022-09-21T09:27:49;0.98;;;0.60;;
23394;SDS011;11870;53.084;18.206;2022-09-21T09:32:59;0.88;;;0.55;;
23394;SDS011;11870;53.084;18.206;2022-09-21T09:35:29;0.50;;;0.50;;
23394;SDS011;11870;53.084;18.206;2022-09-21T09:38:09;0.50;;;0.40;;
23394;SDS011;11870;53.084;18.206;2022-09-21T09:43:36;0.50;;;0.50;;
23394;SDS011;11870;53.084;18.206;2022-09-21T09:51:50;0.50;;;0.50;;
23394;SDS011;11870;53.084;18.206;2022-09-21T09:54:16;1.02;;;0.60;;
23394;SDS011;11870;53.084;18.206;2022-09-21T09:56:46;0.80;;;0.50;;
23394;SDS011;11870;53.084;18.206;2022-09-21T09:59:16;1.58;;;0.60;;
23394;SDS011;11870;53.084;18.206;2022-09-21T10:01:59;1.27;;;0.70;;
23394;SDS011;11870;53.084;18.206;2022-09-21T10:04:28;0.70;;;0.70;;
23394;SDS011;11870;53.084;18.206;2022-09-21T10:06:55;1.45;;;0.75;;
23394;SDS011;11870;53.084;18.206;2022-09-21T10:11:48;1.38;;;0.75;;
23394;SDS011;11870;53.084;18.206;2022-09-21T10:14:17;2.55;;;0.60;;
23394;SDS011;11870;53.084;18.206;2022-09-21T10:16:47;1.10;;;0.70;;
23394;SDS011;11870;53.084;18.206;2022-09-21T10:19:25;1.13;;;0.60;;
23394;SDS011;11870;53.084;18.206;2022-09-21T10:21:54;0.60;;;0.60;;
23394;SDS011;11870;53.084;18.206;2022-09-21T10:26:50;0.68;;;0.60;;
23394;SDS011;11870;53.084;18.206;2022-09-21T10:34:19;2.33;;;0.60;;
23394;SDS011;11870;53.084;18.206;2022-09-21T10:36:51;1.02;;;0.65;;
23394;SDS011;11870;53.084;18.206;2022-09-21T10:39:45;0.50;;;0.50;;
23394;SDS011;11870;53.084;18.206;2022-09-21T10:42:13;1.73;;;0.70;;
23394;SDS011;11870;53.084;18.206;2022-09-21T10:44:42;1.10;;;0.70;;
23394;SDS011;11870;53.084;18.206;2022-09-21T10:50:01;2.95;;;0.60;;
23394;SDS011;11870;53.084;18.206;2022-09-21T10:52:44;0.93;;;0.60;;
23394;SDS011;11870;53.084;18.206;2022-09-21T10:55:15;0.82;;;0.60;;
23394;SDS011;11870;53.084;18.206;2022-09-21T10:57:44;1.23;;;0.60;;
23394;SDS011;11870;53.084;18.206;2022-09-21T11:02:45;1.50;;;0.68;;
23394;SDS011;11870;53.084;18.206;2022-09-21T11:05:14;0.50;;;0.50;;
23394;SDS011;11870;53.084;18.206;2022-09-21T11:15:53;1.55;;;0.68;;
23394;SDS011;11870;53.084;18.206;2022-09-21T11:21:31;1.33;;;0.77;;
23394;SDS011;11870;53.084;18.206;2022-09-21T11:26:38;1.02;;;0.80;;
23394;SDS011;11870;53.084;18.206;2022-09-21T11:37:09;1.13;;;0.70;;
23394;SDS011;11870;53.084;18.206;2022-09-21T11:54:09;1.30;;;0.70;;
23394;SDS011;11870;53.084;18.206;2022-09-21T12:02:48;0.90;;;0.73;;
23394;SDS011;11870;53.084;18.206;2022-09-21T12:05:43;0.80;;;0.75;;
23394;SDS011;11870;53.084;18.206;2022-09-21T12:22:14;0.85;;;0.70;;
23394;SDS011;11870;53.084;18.206;2022-09-21T12:24:51;2.55;;;0.90;;
23394;SDS011;11870;53.084;18.206;2022-09-21T12:27:30;0.98;;;0.70;;
23394;SDS011;11870;53.084;18.206;2022-09-21T12:30:05;1.40;;;1.02;;
23394;SDS011;11870;53.084;18.206;2022-09-21T12:32:51;4.05;;;1.00;;
23394;SDS011;11870;53.084;18.206;2022-09-21T12:35:45;2.35;;;0.98;;
23394;SDS011;11870;53.084;18.206;2022-09-21T12:38:16;3.25;;;1.10;;
23394;SDS011;11870;53.084;18.206;2022-09-21T12:41:04;0.90;;;0.80;;
23394;SDS011;11870;53.084;18.206;2022-09-21T12:46:20;1.45;;;0.93;;
23394;SDS011;11870;53.084;18.206;2022-09-21T12:48:50;1.60;;;0.88;;
23394;SDS011;11870;53.084;18.206;2022-09-21T12:51:27;0.82;;;0.70;;
23394;SDS011;11870;53.084;18.206;2022-09-21T12:54:00;2.17;;;0.75;;
23394;SDS011;11870;53.084;18.206;2022-09-21T12:56:42;1.65;;;0.80;;
23394;SDS011;11870;53.084;18.206;2022-09-21T12:59:29;0.93;;;0.73;;
23394;SDS011;11870;53.084;18.206;2022-09-21T13:10:42;1.48;;;0.65;;
23394;SDS011;11870;53.084;18.206;2022-09-21T13:15:59;2.78;;;1.90;;
23394;SDS011;11870;53.084;18.206;2022-09-21T13:18:33;5.15;;;3.53;;
23394;SDS011;11870;53.084;18.206;2022-09-21T13:21:13;3.30;;;1.85;;
23394;SDS011;11870;53.084;18.206;2022-09-21T13:23:54;1.95;;;1.10;;
23394;SDS011;11870;53.084;18.206;2022-09-21T13:31:51;1.02;;;0.93;;
23394;SDS011;11870;53.084;18.206;2022-09-21T13:40:28;2.38;;;0.60;;
23394;SDS011;11870;53.084;18.206;2022-09-21T13:42:43;1.33;;;0.73;;
23394;SDS011;11870;53.084;18.206;2022-09-21T13:47:44;1.60;;;0.85;;
23394;SDS011;11870;53.084;18.206;2022-09-21T13:52:57;0.90;;;0.70;;
23394;SDS011;11870;53.084;18.206;2022-09-21T13:58:15;0.57;;;0.52;;
23394;SDS011;11870;53.084;18.206;2022-09-21T14:03:18;0.98;;;0.70;;
23394;SDS011;11870;53.084;18.206;2022-09-21T14:05:59;0.63;;;0.55;;
23394;SDS011;11870;53.084;18.206;2022-09-21T14:08:35;0.85;;;0.60;;
23394;SDS011;11870;53.084;18.206;2022-09-21T14:14:05;2.63;;;0.60;;
23394;SDS011;11870;53.084;18.206;2022-09-21T14:24:33;0.50;;;0.50;;
23394;SDS011;11870;53.084;18.206;2022-09-21T14:27:12;0.70;;;0.70;;
23394;SDS011;11870;53.084;18.206;2022-09-21T14:29:54;0.80;;;0.65;;
23394;SDS011;11870;53.084;18.206;2022-09-21T14:32:27;0.88;;;0.70;;
23394;SDS011;11870;53.084;18.206;2022-09-21T14:34:59;1.00;;;0.60;;
23394;SDS011;11870;53.084;18.206;2022-09-21T14:37:47;0.90;;;0.73;;
23394;SDS011;11870;53.084;18.206;2022-09-21T14:40:19;1.23;;;0.75;;
23394;SDS011;11870;53.084;18.206;2022-09-21T14:43:06;0.85;;;0.70;;
23394;SDS011;11870;53.084;18.206;2022-09-21T14:48:25;0.88;;;0.70;;
23394;SDS011;11870;53.084;18.206;2022-09-21T14:51:02;0.85;;;0.60;;
23394;SDS011;11870;53.084;18.206;2022-09-21T14:53:55;1.90;;;0.68;;
23394;SDS011;11870;53.084;18.206;2022-09-21T14:59:52;0.70;;;0.52;;
23394;SDS011;11870;53.084;18.206;2022-09-21T15:02:45;0.88;;;0.70;;
23394;SDS011;11870;53.084;18.206;2022-09-21T15:05:28;0.88;;;0.45;;
23394;SDS011;11870;53.084;18.206;2022-09-21T15:16:47;0.98;;;0.52;;
23394;SDS011;11870;53.084;18.206;2022-09-21T15:24:50;1.70;;;0.70;;
23394;SDS011;11870;53.084;18.206;2022-09-21T15:27:24;0.70;;;0.60;;
23394;SDS011;11870;53.084;18.206;2022-09-21T15:29:58;1.90;;;0.68;;
23394;SDS011;11870;53.084;18.206;2022-09-21T15:35:27;0.45;;;0.45;;
23394;SDS011;11870;53.084;18.206;2022-09-21T15:37:55;0.63;;;0.40;;
23394;SDS011;11870;53.084;18.206;2022-09-21T15:40:35;1.15;;;0.60;;
23394;SDS011;11870;53.084;18.206;2022-09-21T15:48:16;2.42;;;0.88;;
23394;SDS011;11870;53.084;18.206;2022-09-21T15:50:44;1.85;;;0.65;;
23394;SDS011;11870;53.084;18.206;2022-09-21T15:53:22;1.23;;;0.80;;
23394;SDS011;11870;53.084;18.206;2022-09-21T15:55:52;0.70;;;0.68;;
23394;SDS011;11870;53.084;18.206;2022-09-21T15:58:26;1.33;;;0.68;;
23394;SDS011;11870;53.084;18.206;2022-09-21T16:01:00;0.75;;;0.55;;
23394;SDS011;11870;53.084;18.206;2022-09-21T16:03:27;1.58;;;0.80;;
23394;SDS011;11870;53.084;18.206;2022-09-21T16:05:54;1.38;;;0.82;;
23394;SDS011;11870;53.084;18.206;2022-09-21T16:13:58;1.00;;;0.90;;
23394;SDS011;11870;53.084;18.206;2022-09-21T16:19:41;1.10;;;0.90;;
23394;SDS011;11870;53.084;18.206;2022-09-21T16:24:57;1.20;;;0.60;;
23394;SDS011;11870;53.084;18.206;2022-09-21T16:27:28;0.85;;;0.70;;
23394;SDS011;11870;53.084;18.206;2022-09-21T16:29:56;1.13;;;0.80;;
23394;SDS011;11870;53.084;18.206;2022-09-21T16:34:51;1.33;;;1.00;;
23394;SDS011;11870;53.084;18.206;2022-09-21T16:37:29;1.70;;;0.90;;
23394;SDS011;11870;53.084;18.206;2022-09-21T16:39:56;2.00;;;1.20;;
23394;SDS011;11870;53.084;18.206;2022-09-21T16:42:24;3.78;;;1.23;;
23394;SDS011;11870;53.084;18.206;2022-09-21T16:44:53;1.98;;;1.20;;
23394;SDS011;11870;53.084;18.206;2022-09-21T16:47:20;2.83;;;1.27;;
23394;SDS011;11870;53.084;18.206;2022-09-21T16:49:50;1.70;;;1.20;;
23394;SDS011;11870;53.084;18.206;2022-09-21T16:52:20;1.92;;;1.40;;
23394;SDS011;11870;53.084;18.206;2022-09-21T16:54:47;2.50;;;1.30;;
23394;SDS011;11870;53.084;18.206;2022-09-21T16:57:14;2.83;;;1.50;;
23394;SDS011;11870;53.084;18.206;2022-09-21T16:59:41;1.63;;;1.40;;
23394;SDS011;11870;53.084;18.206;2022-09-21T17:02:10;2.50;;;1.10;;
23394;SDS011;11870;53.084;18.206;2022-09-21T17:04:38;3.78;;;1.42;;
23394;SDS011;11870;53.084;18.206;2022-09-21T17:07:04;2.45;;;1.33;;
23394;SDS011;11870;53.084;18.206;2022-09-21T17:09:32;2.75;;;1.38;;
23394;SDS011;11870;53.084;18.206;2022-09-21T17:12:00;4.28;;;1.40;;
23394;SDS011;11870;53.084;18.206;2022-09-21T17:14:28;1.98;;;1.42;;
23394;SDS011;11870;53.084;18.206;2022-09-21T17:17:22;3.75;;;1.70;;
23394;SDS011;11870;53.084;18.206;2022-09-21T17:19:51;24.33;;;9.50;;
23394;SDS011;11870;53.084;18.206;2022-09-21T17:22:18;21.90;;;9.00;;
23394;SDS011;11870;53.084;18.206;2022-09-21T17:24:48;53.42;;;19.98;;
23394;SDS011;11870;53.084;18.206;2022-09-21T17:27:16;102.97;;;41.00;;
23394;SDS011;11870;53.084;18.206;2022-09-21T17:29:44;105.35;;;39.95;;
23394;SDS011;11870;53.084;18.206;2022-09-21T17:32:14;49.45;;;19.42;;
23394;SDS011;11870;53.084;18.206;2022-09-21T17:34:43;51.30;;;18.67;;
23394;SDS011;11870;53.084;18.206;2022-09-21T17:37:10;56.35;;;20.25;;
23394;SDS011;11870;53.084;18.206;2022-09-21T17:39:36;43.63;;;17.52;;
23394;SDS011;11870;53.084;18.206;2022-09-21T17:42:04;45.15;;;17.17;;
23394;SDS011;11870;53.084;18.206;2022-09-21T17:47:13;23.98;;;9.23;;
23394;SDS011;11870;53.084;18.206;2022-09-21T17:49:49;26.77;;;11.05;;
23394;SDS011;11870;53.084;18.206;2022-09-21T17:52:20;20.42;;;8.02;;
23394;SDS011;11870;53.084;18.206;2022-09-21T17:55:06;16.40;;;5.90;;
23394;SDS011;11870;53.084;18.206;2022-09-21T18:00:31;10.07;;;4.65;;
23394;SDS011;11870;53.084;18.206;2022-09-21T18:03:14;9.52;;;4.05;;
23394;SDS011;11870;53.084;18.206;2022-09-21T18:05:46;8.55;;;3.60;;
23394;SDS011;11870;53.084;18.206;2022-09-21T18:08:20;10.02;;;4.25;;
23394;SDS011;11870;53.084;18.206;2022-09-21T18:10:49;10.40;;;4.18;;
23394;SDS011;11870;53.084;18.206;2022-09-21T18:16:36;18.58;;;8.75;;
23394;SDS011;11870;53.084;18.206;2022-09-21T18:22:23;16.48;;;7.43;;
23394;SDS011;11870;53.084;18.206;2022-09-21T18:24:58;18.75;;;8.75;;
23394;SDS011;11870;53.084;18.206;2022-09-21T18:27:25;19.70;;;9.95;;
23394;SDS011;11870;53.084;18.206;2022-09-21T18:29:51;18.23;;;9.05;;
23394;SDS011;11870;53.084;18.206;2022-09-21T18:32:33;19.85;;;9.32;;
23394;SDS011;11870;53.084;18.206;2022-09-21T18:43:47;16.20;;;7.45;;
23394;SDS011;11870;53.084;18.206;2022-09-21T18:46:16;14.70;;;6.65;;
23394;SDS011;11870;53.084;18.206;2022-09-21T18:51:45;10.43;;;5.50;;
23394;SDS011;11870;53.084;18.206;2022-09-21T18:54:42;12.88;;;5.88;;
23394;SDS011;11870;53.084;18.206;2022-09-21T18:57:12;17.23;;;8.23;;